sensor_id;sensor_type;location;lat;lon;timestamp;P1;durP1;ratioP1;P2;durP2;ratioP2
15142;SDS011;7672;50.834;6.286;2023-06-26T00:01:43;7.38;;;5.90;;
15142;SDS011;7672;50.834;6.286;2023-06-26T00:04:11;7.20;;;5.60;;
15142;SDS011;7672;50.834;6.286;2023-06-26T00:06:40;6.03;;;5.53;;
15142;SDS011;7672;50.834;6.286;2023-06-26T00:09:09;6.00;;;5.53;;
15142;SDS011;7672;50.834;6.286;2023-06-26T00:11:36;6.38;;;5.78;;
15142;SDS011;7672;50.834;6.286;2023-06-26T00:14:03;8.18;;;5.90;;
15142;SDS011;7672;50.834;6.286;2023-06-26T00:16:30;6.03;;;5.53;;
15142;SDS011;7672;50.834;6.286;2023-06-26T00:18:59;6.10;;;5.50;;
15142;SDS011;7672;50.834;6.286;2023-06-26T00:21:26;6.28;;;5.68;;
15142;SDS011;7672;50.834;6.286;2023-06-26T00:23:53;7.15;;;5.22;;
15142;SDS011;7672;50.834;6.286;2023-06-26T00:26:20;6.90;;;5.65;;
15142;SDS011;7672;50.834;6.286;2023-06-26T00:28:48;6.22;;;5.63;;
15142;SDS011;7672;50.834;6.286;2023-06-26T00:31:15;7.32;;;6.30;;
15142;SDS011;7672;50.834;6.286;2023-06-26T00:33:42;7.07;;;5.95;;
15142;SDS011;7672;50.834;6.286;2023-06-26T00:36:09;6.65;;;6.05;;
15142;SDS011;7672;50.834;6.286;2023-06-26T00:38:37;6.32;;;5.82;;
15142;SDS011;7672;50.834;6.286;2023-06-26T00:41:05;6.80;;;6.18;;
15142;SDS011;7672;50.834;6.286;2023-06-26T00:43:38;7.00;;;6.30;;
15142;SDS011;7672;50.834;6.286;2023-06-26T00:46:10;9.43;;;6.13;;
15142;SDS011;7672;50.834;6.286;2023-06-26T00:48:41;6.63;;;5.68;;
15142;SDS011;7672;50.834;6.286;2023-06-26T00:51:12;7.00;;;6.40;;
15142;SDS011;7672;50.834;6.286;2023-06-26T00:53:39;8.63;;;6.43;;
15142;SDS011;7672;50.834;6.286;2023-06-26T00:56:08;6.78;;;6.18;;
15142;SDS011;7672;50.834;6.286;2023-06-26T00:58:35;6.50;;;6.00;;
15142;SDS011;7672;50.834;6.286;2023-06-26T01:01:03;7.05;;;6.45;;
15142;SDS011;7672;50.834;6.286;2023-06-26T01:03:32;6.75;;;6.03;;
15142;SDS011;7672;50.834;6.286;2023-06-26T01:05:59;6.28;;;5.60;;
15142;SDS011;7672;50.834;6.286;2023-06-26T01:08:27;6.05;;;5.55;;
15142;SDS011;7672;50.834;6.286;2023-06-26T01:10:56;5.68;;;5.18;;
15142;SDS011;7672;50.834;6.286;2023-06-26T01:13:23;5.97;;;5.47;;
15142;SDS011;7672;50.834;6.286;2023-06-26T01:15:51;5.90;;;5.40;;
15142;SDS011;7672;50.834;6.286;2023-06-26T01:18:19;6.28;;;5.70;;
15142;SDS011;7672;50.834;6.286;2023-06-26T01:20:46;6.65;;;5.95;;
15142;SDS011;7672;50.834;6.286;2023-06-26T01:23:20;6.13;;;5.53;;
15142;SDS011;7672;50.834;6.286;2023-06-26T01:26:09;8.43;;;5.50;;
15142;SDS011;7672;50.834;6.286;2023-06-26T01:28:42;7.15;;;5.90;;
15142;SDS011;7672;50.834;6.286;2023-06-26T01:31:11;7.80;;;5.22;;
15142;SDS011;7672;50.834;6.286;2023-06-26T01:33:40;8.35;;;5.80;;
15142;SDS011;7672;50.834;6.286;2023-06-26T01:36:08;7.53;;;5.78;;
15142;SDS011;7672;50.834;6.286;2023-06-26T01:38:36;6.80;;;5.55;;
15142;SDS011;7672;50.834;6.286;2023-06-26T01:41:04;8.20;;;5.55;;
15142;SDS011;7672;50.834;6.286;2023-06-26T01:46:54;6.25;;;5.63;;
15142;SDS011;7672;50.834;6.286;2023-06-26T01:54:56;7.93;;;6.20;;
15142;SDS011;7672;50.834;6.286;2023-06-26T01:57:31;6.47;;;5.97;;
15142;SDS011;7672;50.834;6.286;2023-06-26T02:00:02;5.82;;;5.28;;
15142;SDS011;7672;50.834;6.286;2023-06-26T02:02:40;6.50;;;5.90;;
15142;SDS011;7672;50.834;6.286;2023-06-26T02:05:12;7.05;;;5.70;;
15142;SDS011;7672;50.834;6.286;2023-06-26T02:07:40;6.28;;;5.70;;
15142;SDS011;7672;50.834;6.286;2023-06-26T02:10:08;6.13;;;5.63;;
15142;SDS011;7672;50.834;6.286;2023-06-26T02:12:36;7.35;;;6.65;;
15142;SDS011;7672;50.834;6.286;2023-06-26T02:15:04;6.45;;;5.80;;
15142;SDS011;7672;50.834;6.286;2023-06-26T02:17:32;7.10;;;5.82;;
15142;SDS011;7672;50.834;6.286;2023-06-26T02:20:00;9.32;;;5.95;;
15142;SDS011;7672;50.834;6.286;2023-06-26T02:22:29;6.10;;;5.50;;
15142;SDS011;7672;50.834;6.286;2023-06-26T02:24:56;6.38;;;5.68;;
15142;SDS011;7672;50.834;6.286;2023-06-26T02:27:24;7.32;;;6.53;;
15142;SDS011;7672;50.834;6.286;2023-06-26T02:29:52;6.30;;;5.80;;
15142;SDS011;7672;50.834;6.286;2023-06-26T02:32:19;6.55;;;5.95;;
15142;SDS011;7672;50.834;6.286;2023-06-26T02:34:48;7.53;;;6.10;;
15142;SDS011;7672;50.834;6.286;2023-06-26T02:37:18;5.97;;;5.47;;
15142;SDS011;7672;50.834;6.286;2023-06-26T02:39:46;6.45;;;5.70;;
15142;SDS011;7672;50.834;6.286;2023-06-26T02:42:14;6.32;;;5.72;;
15142;SDS011;7672;50.834;6.286;2023-06-26T02:44:41;6.35;;;5.85;;
15142;SDS011;7672;50.834;6.286;2023-06-26T02:47:10;6.60;;;6.00;;
15142;SDS011;7672;50.834;6.286;2023-06-26T02:49:41;9.25;;;5.97;;
15142;SDS011;7672;50.834;6.286;2023-06-26T02:52:08;6.50;;;5.93;;
15142;SDS011;7672;50.834;6.286;2023-06-26T02:54:35;11.60;;;6.32;;
15142;SDS011;7672;50.834;6.286;2023-06-26T02:57:04;6.80;;;5.82;;
15142;SDS011;7672;50.834;6.286;2023-06-26T02:59:32;7.10;;;6.40;;
15142;SDS011;7672;50.834;6.286;2023-06-26T03:02:00;7.57;;;6.97;;
15142;SDS011;7672;50.834;6.286;2023-06-26T03:04:32;9.80;;;6.15;;
15142;SDS011;7672;50.834;6.286;2023-06-26T03:07:04;6.63;;;6.03;;
15142;SDS011;7672;50.834;6.286;2023-06-26T03:09:32;6.25;;;5.70;;
15142;SDS011;7672;50.834;6.286;2023-06-26T03:11:59;6.78;;;6.07;;
15142;SDS011;7672;50.834;6.286;2023-06-26T03:14:27;6.57;;;6.00;;
15142;SDS011;7672;50.834;6.286;2023-06-26T03:16:55;6.30;;;5.80;;
15142;SDS011;7672;50.834;6.286;2023-06-26T03:19:26;7.43;;;6.43;;
15142;SDS011;7672;50.834;6.286;2023-06-26T03:22:11;6.72;;;6.05;;
15142;SDS011;7672;50.834;6.286;2023-06-26T03:24:38;8.88;;;5.47;;
15142;SDS011;7672;50.834;6.286;2023-06-26T03:27:06;6.45;;;5.85;;
15142;SDS011;7672;50.834;6.286;2023-06-26T03:29:36;8.98;;;5.57;;
15142;SDS011;7672;50.834;6.286;2023-06-26T03:32:03;5.72;;;5.03;;
15142;SDS011;7672;50.834;6.286;2023-06-26T03:34:31;6.20;;;5.60;;
15142;SDS011;7672;50.834;6.286;2023-06-26T03:36:58;5.80;;;5.20;;
15142;SDS011;7672;50.834;6.286;2023-06-26T03:39:25;6.32;;;5.32;;
15142;SDS011;7672;50.834;6.286;2023-06-26T03:41:53;5.85;;;5.20;;
15142;SDS011;7672;50.834;6.286;2023-06-26T03:44:22;5.95;;;5.32;;
15142;SDS011;7672;50.834;6.286;2023-06-26T03:46:49;6.25;;;5.28;;
15142;SDS011;7672;50.834;6.286;2023-06-26T03:49:16;10.20;;;5.57;;
15142;SDS011;7672;50.834;6.286;2023-06-26T03:51:44;7.05;;;5.53;;
15142;SDS011;7672;50.834;6.286;2023-06-26T03:54:13;7.57;;;5.32;;
15142;SDS011;7672;50.834;6.286;2023-06-26T03:56:42;6.80;;;5.05;;
15142;SDS011;7672;50.834;6.286;2023-06-26T03:59:09;6.05;;;5.40;;
15142;SDS011;7672;50.834;6.286;2023-06-26T04:01:37;7.57;;;5.25;;
15142;SDS011;7672;50.834;6.286;2023-06-26T04:04:05;7.03;;;5.63;;
15142;SDS011;7672;50.834;6.286;2023-06-26T04:06:32;6.45;;;5.78;;
15142;SDS011;7672;50.834;6.286;2023-06-26T04:09:00;7.93;;;5.35;;
15142;SDS011;7672;50.834;6.286;2023-06-26T04:11:27;9.35;;;5.63;;
15142;SDS011;7672;50.834;6.286;2023-06-26T04:13:54;7.13;;;5.90;;
15142;SDS011;7672;50.834;6.286;2023-06-26T04:16:22;5.53;;;4.93;;
15142;SDS011;7672;50.834;6.286;2023-06-26T04:18:52;6.82;;;4.90;;
15142;SDS011;7672;50.834;6.286;2023-06-26T04:21:20;11.90;;;4.80;;
15142;SDS011;7672;50.834;6.286;2023-06-26T04:23:47;5.65;;;5.05;;
15142;SDS011;7672;50.834;6.286;2023-06-26T04:26:14;7.65;;;4.80;;
15142;SDS011;7672;50.834;6.286;2023-06-26T04:28:41;6.45;;;5.25;;
15142;SDS011;7672;50.834;6.286;2023-06-26T04:31:09;5.38;;;4.40;;
15142;SDS011;7672;50.834;6.286;2023-06-26T04:33:37;8.07;;;5.18;;
15142;SDS011;7672;50.834;6.286;2023-06-26T04:36:08;5.20;;;4.28;;
15142;SDS011;7672;50.834;6.286;2023-06-26T04:38:35;6.18;;;4.68;;
15142;SDS011;7672;50.834;6.286;2023-06-26T04:41:03;9.10;;;4.63;;
15142;SDS011;7672;50.834;6.286;2023-06-26T04:43:30;6.57;;;4.53;;
15142;SDS011;7672;50.834;6.286;2023-06-26T04:45:57;5.20;;;4.35;;
15142;SDS011;7672;50.834;6.286;2023-06-26T04:48:24;4.32;;;3.92;;
15142;SDS011;7672;50.834;6.286;2023-06-26T04:50:54;5.63;;;4.40;;
15142;SDS011;7672;50.834;6.286;2023-06-26T04:53:22;5.15;;;4.22;;
15142;SDS011;7672;50.834;6.286;2023-06-26T04:55:52;6.80;;;4.40;;
15142;SDS011;7672;50.834;6.286;2023-06-26T04:58:20;5.90;;;4.50;;
15142;SDS011;7672;50.834;6.286;2023-06-26T05:00:47;4.78;;;4.18;;
15142;SDS011;7672;50.834;6.286;2023-06-26T05:03:16;6.57;;;3.97;;
15142;SDS011;7672;50.834;6.286;2023-06-26T05:05:44;7.22;;;4.03;;
15142;SDS011;7672;50.834;6.286;2023-06-26T05:08:20;6.50;;;4.65;;
15142;SDS011;7672;50.834;6.286;2023-06-26T05:10:50;7.57;;;4.25;;
15142;SDS011;7672;50.834;6.286;2023-06-26T05:13:17;7.53;;;4.22;;
15142;SDS011;7672;50.834;6.286;2023-06-26T05:15:46;6.65;;;3.83;;
15142;SDS011;7672;50.834;6.286;2023-06-26T05:18:13;6.55;;;4.07;;
15142;SDS011;7672;50.834;6.286;2023-06-26T05:20:40;6.75;;;3.95;;
15142;SDS011;7672;50.834;6.286;2023-06-26T05:23:08;7.32;;;4.10;;
15142;SDS011;7672;50.834;6.286;2023-06-26T05:25:39;7.47;;;4.10;;
15142;SDS011;7672;50.834;6.286;2023-06-26T05:28:07;9.45;;;4.15;;
15142;SDS011;7672;50.834;6.286;2023-06-26T05:30:37;3.90;;;3.47;;
15142;SDS011;7672;50.834;6.286;2023-06-26T05:33:05;4.93;;;3.97;;
15142;SDS011;7672;50.834;6.286;2023-06-26T05:35:34;7.45;;;4.20;;
15142;SDS011;7672;50.834;6.286;2023-06-26T05:38:03;5.93;;;4.40;;
15142;SDS011;7672;50.834;6.286;2023-06-26T05:40:31;5.35;;;4.32;;
15142;SDS011;7672;50.834;6.286;2023-06-26T05:43:00;7.30;;;4.20;;
15142;SDS011;7672;50.834;6.286;2023-06-26T05:45:28;5.88;;;4.45;;
15142;SDS011;7672;50.834;6.286;2023-06-26T05:47:55;9.20;;;3.97;;
15142;SDS011;7672;50.834;6.286;2023-06-26T05:50:22;8.00;;;4.63;;
15142;SDS011;7672;50.834;6.286;2023-06-26T05:52:50;6.97;;;4.85;;
15142;SDS011;7672;50.834;6.286;2023-06-26T05:55:18;9.45;;;5.53;;
15142;SDS011;7672;50.834;6.286;2023-06-26T05:57:46;9.32;;;4.95;;
15142;SDS011;7672;50.834;6.286;2023-06-26T06:00:16;9.27;;;5.03;;
15142;SDS011;7672;50.834;6.286;2023-06-26T06:02:45;7.97;;;4.32;;
15142;SDS011;7672;50.834;6.286;2023-06-26T06:05:12;9.38;;;5.43;;
15142;SDS011;7672;50.834;6.286;2023-06-26T06:07:39;7.85;;;5.05;;
15142;SDS011;7672;50.834;6.286;2023-06-26T06:10:06;8.43;;;5.60;;
15142;SDS011;7672;50.834;6.286;2023-06-26T06:12:34;6.43;;;4.75;;
15142;SDS011;7672;50.834;6.286;2023-06-26T06:15:01;9.07;;;5.32;;
15142;SDS011;7672;50.834;6.286;2023-06-26T06:17:29;10.10;;;5.57;;
15142;SDS011;7672;50.834;6.286;2023-06-26T06:19:56;8.60;;;5.93;;
15142;SDS011;7672;50.834;6.286;2023-06-26T06:22:23;6.90;;;5.25;;
15142;SDS011;7672;50.834;6.286;2023-06-26T06:24:51;8.50;;;5.35;;
15142;SDS011;7672;50.834;6.286;2023-06-26T06:27:18;8.30;;;5.70;;
15142;SDS011;7672;50.834;6.286;2023-06-26T06:29:45;9.68;;;5.57;;
15142;SDS011;7672;50.834;6.286;2023-06-26T06:32:12;7.10;;;5.30;;
15142;SDS011;7672;50.834;6.286;2023-06-26T06:34:40;8.00;;;5.85;;
15142;SDS011;7672;50.834;6.286;2023-06-26T06:37:07;7.65;;;5.85;;
15142;SDS011;7672;50.834;6.286;2023-06-26T06:39:34;10.45;;;8.10;;
15142;SDS011;7672;50.834;6.286;2023-06-26T06:42:01;13.50;;;6.88;;
15142;SDS011;7672;50.834;6.286;2023-06-26T06:44:28;8.35;;;6.45;;
15142;SDS011;7672;50.834;6.286;2023-06-26T06:46:57;8.57;;;6.22;;
15142;SDS011;7672;50.834;6.286;2023-06-26T06:49:24;11.77;;;6.05;;
15142;SDS011;7672;50.834;6.286;2023-06-26T06:51:52;8.63;;;6.10;;
15142;SDS011;7672;50.834;6.286;2023-06-26T06:54:20;9.43;;;6.25;;
15142;SDS011;7672;50.834;6.286;2023-06-26T06:56:48;7.75;;;6.32;;
15142;SDS011;7672;50.834;6.286;2023-06-26T06:59:15;8.95;;;6.07;;
15142;SDS011;7672;50.834;6.286;2023-06-26T07:01:42;7.75;;;5.80;;
15142;SDS011;7672;50.834;6.286;2023-06-26T07:04:09;9.48;;;6.00;;
15142;SDS011;7672;50.834;6.286;2023-06-26T07:06:36;15.32;;;5.80;;
15142;SDS011;7672;50.834;6.286;2023-06-26T07:09:03;7.75;;;5.60;;
15142;SDS011;7672;50.834;6.286;2023-06-26T07:11:32;10.00;;;5.90;;
15142;SDS011;7672;50.834;6.286;2023-06-26T07:13:59;7.30;;;5.57;;
15142;SDS011;7672;50.834;6.286;2023-06-26T07:16:26;10.30;;;5.75;;
15142;SDS011;7672;50.834;6.286;2023-06-26T07:18:53;6.13;;;5.20;;
15142;SDS011;7672;50.834;6.286;2023-06-26T07:21:21;10.63;;;5.43;;
15142;SDS011;7672;50.834;6.286;2023-06-26T07:23:51;6.50;;;5.10;;
15142;SDS011;7672;50.834;6.286;2023-06-26T07:26:19;7.03;;;5.03;;
15142;SDS011;7672;50.834;6.286;2023-06-26T07:29:05;12.05;;;5.63;;
15142;SDS011;7672;50.834;6.286;2023-06-26T07:31:33;11.57;;;5.18;;
15142;SDS011;7672;50.834;6.286;2023-06-26T07:34:00;7.65;;;4.30;;
15142;SDS011;7672;50.834;6.286;2023-06-26T07:36:27;10.27;;;4.95;;
15142;SDS011;7672;50.834;6.286;2023-06-26T07:38:55;7.43;;;5.18;;
15142;SDS011;7672;50.834;6.286;2023-06-26T07:41:22;8.75;;;4.85;;
15142;SDS011;7672;50.834;6.286;2023-06-26T07:43:49;6.00;;;4.80;;
15142;SDS011;7672;50.834;6.286;2023-06-26T07:46:16;9.90;;;5.25;;
15142;SDS011;7672;50.834;6.286;2023-06-26T07:48:43;8.25;;;4.82;;
15142;SDS011;7672;50.834;6.286;2023-06-26T07:51:10;9.68;;;4.90;;
15142;SDS011;7672;50.834;6.286;2023-06-26T07:53:37;6.15;;;4.57;;
15142;SDS011;7672;50.834;6.286;2023-06-26T07:56:05;10.32;;;4.93;;
15142;SDS011;7672;50.834;6.286;2023-06-26T07:58:32;7.53;;;4.60;;
15142;SDS011;7672;50.834;6.286;2023-06-26T08:01:00;7.38;;;5.30;;
15142;SDS011;7672;50.834;6.286;2023-06-26T08:03:27;11.38;;;4.85;;
15142;SDS011;7672;50.834;6.286;2023-06-26T08:06:01;5.72;;;4.60;;
15142;SDS011;7672;50.834;6.286;2023-06-26T08:08:30;5.97;;;3.97;;
15142;SDS011;7672;50.834;6.286;2023-06-26T08:10:57;7.90;;;4.30;;
15142;SDS011;7672;50.834;6.286;2023-06-26T08:13:24;7.88;;;4.78;;
15142;SDS011;7672;50.834;6.286;2023-06-26T08:15:52;7.45;;;4.30;;
15142;SDS011;7672;50.834;6.286;2023-06-26T08:18:19;8.02;;;4.38;;
15142;SDS011;7672;50.834;6.286;2023-06-26T08:20:46;6.45;;;3.80;;
15142;SDS011;7672;50.834;6.286;2023-06-26T08:23:13;8.38;;;4.22;;
15142;SDS011;7672;50.834;6.286;2023-06-26T08:25:40;7.45;;;4.38;;
15142;SDS011;7672;50.834;6.286;2023-06-26T08:28:08;8.60;;;3.60;;
15142;SDS011;7672;50.834;6.286;2023-06-26T08:30:35;8.05;;;4.35;;
15142;SDS011;7672;50.834;6.286;2023-06-26T08:33:02;6.22;;;3.58;;
15142;SDS011;7672;50.834;6.286;2023-06-26T08:35:29;7.95;;;3.80;;
15142;SDS011;7672;50.834;6.286;2023-06-26T08:37:58;7.15;;;3.50;;
15142;SDS011;7672;50.834;6.286;2023-06-26T08:40:25;4.50;;;3.05;;
15142;SDS011;7672;50.834;6.286;2023-06-26T08:42:53;6.32;;;3.30;;
15142;SDS011;7672;50.834;6.286;2023-06-26T08:45:20;4.95;;;3.53;;
15142;SDS011;7672;50.834;6.286;2023-06-26T08:47:49;4.35;;;3.10;;
15142;SDS011;7672;50.834;6.286;2023-06-26T08:50:20;5.95;;;3.33;;
15142;SDS011;7672;50.834;6.286;2023-06-26T08:55:34;5.78;;;3.53;;
15142;SDS011;7672;50.834;6.286;2023-06-26T08:58:04;6.43;;;3.40;;
15142;SDS011;7672;50.834;6.286;2023-06-26T09:00:32;8.20;;;3.55;;
15142;SDS011;7672;50.834;6.286;2023-06-26T09:03:00;5.10;;;3.20;;
15142;SDS011;7672;50.834;6.286;2023-06-26T09:05:30;10.43;;;3.80;;
15142;SDS011;7672;50.834;6.286;2023-06-26T09:08:02;5.60;;;3.20;;
15142;SDS011;7672;50.834;6.286;2023-06-26T09:10:30;7.47;;;3.20;;
15142;SDS011;7672;50.834;6.286;2023-06-26T09:12:57;5.82;;;3.17;;
15142;SDS011;7672;50.834;6.286;2023-06-26T09:15:27;5.40;;;3.05;;
15142;SDS011;7672;50.834;6.286;2023-06-26T09:18:09;5.40;;;3.08;;
15142;SDS011;7672;50.834;6.286;2023-06-26T09:20:36;5.45;;;3.38;;
15142;SDS011;7672;50.834;6.286;2023-06-26T09:23:04;6.55;;;3.15;;
15142;SDS011;7672;50.834;6.286;2023-06-26T09:25:32;5.60;;;3.42;;
15142;SDS011;7672;50.834;6.286;2023-06-26T09:28:00;6.20;;;3.28;;
15142;SDS011;7672;50.834;6.286;2023-06-26T09:30:27;6.70;;;3.20;;
15142;SDS011;7672;50.834;6.286;2023-06-26T09:32:54;4.32;;;2.65;;
15142;SDS011;7672;50.834;6.286;2023-06-26T09:35:21;8.48;;;3.40;;
15142;SDS011;7672;50.834;6.286;2023-06-26T09:37:49;4.43;;;2.65;;
15142;SDS011;7672;50.834;6.286;2023-06-26T09:40:16;8.50;;;3.15;;
15142;SDS011;7672;50.834;6.286;2023-06-26T09:42:43;10.23;;;3.30;;
15142;SDS011;7672;50.834;6.286;2023-06-26T09:45:17;4.53;;;2.78;;
15142;SDS011;7672;50.834;6.286;2023-06-26T09:47:45;5.75;;;3.22;;
15142;SDS011;7672;50.834;6.286;2023-06-26T09:50:22;7.38;;;2.92;;
15142;SDS011;7672;50.834;6.286;2023-06-26T09:52:52;5.72;;;2.70;;
15142;SDS011;7672;50.834;6.286;2023-06-26T09:55:19;6.70;;;3.00;;
15142;SDS011;7672;50.834;6.286;2023-06-26T09:57:50;8.43;;;3.28;;
15142;SDS011;7672;50.834;6.286;2023-06-26T10:00:18;4.85;;;2.95;;
15142;SDS011;7672;50.834;6.286;2023-06-26T10:02:46;7.75;;;3.33;;
15142;SDS011;7672;50.834;6.286;2023-06-26T10:05:13;3.28;;;2.40;;
15142;SDS011;7672;50.834;6.286;2023-06-26T10:07:41;15.05;;;3.72;;
15142;SDS011;7672;50.834;6.286;2023-06-26T10:10:08;3.03;;;2.35;;
15142;SDS011;7672;50.834;6.286;2023-06-26T10:12:37;6.65;;;2.92;;
15142;SDS011;7672;50.834;6.286;2023-06-26T10:15:04;6.40;;;3.05;;
15142;SDS011;7672;50.834;6.286;2023-06-26T10:17:39;6.22;;;3.20;;
15142;SDS011;7672;50.834;6.286;2023-06-26T10:20:09;3.65;;;2.30;;
15142;SDS011;7672;50.834;6.286;2023-06-26T10:22:44;4.78;;;2.95;;
15142;SDS011;7672;50.834;6.286;2023-06-26T10:25:17;4.38;;;2.50;;
15142;SDS011;7672;50.834;6.286;2023-06-26T10:27:47;5.18;;;2.45;;
15142;SDS011;7672;50.834;6.286;2023-06-26T10:30:23;4.78;;;2.50;;
15142;SDS011;7672;50.834;6.286;2023-06-26T10:32:55;6.45;;;2.13;;
15142;SDS011;7672;50.834;6.286;2023-06-26T10:35:23;5.55;;;2.75;;
15142;SDS011;7672;50.834;6.286;2023-06-26T10:37:52;3.80;;;2.60;;
15142;SDS011;7672;50.834;6.286;2023-06-26T10:40:39;4.35;;;2.20;;
15142;SDS011;7672;50.834;6.286;2023-06-26T10:43:12;2.45;;;2.25;;
15142;SDS011;7672;50.834;6.286;2023-06-26T10:45:49;3.22;;;2.30;;
15142;SDS011;7672;50.834;6.286;2023-06-26T10:48:21;3.50;;;2.50;;
15142;SDS011;7672;50.834;6.286;2023-06-26T10:50:49;4.57;;;3.03;;
15142;SDS011;7672;50.834;6.286;2023-06-26T10:55:50;4.80;;;2.60;;
15142;SDS011;7672;50.834;6.286;2023-06-26T11:01:13;4.60;;;2.30;;
15142;SDS011;7672;50.834;6.286;2023-06-26T11:04:05;3.35;;;2.00;;
15142;SDS011;7672;50.834;6.286;2023-06-26T11:06:34;6.50;;;2.70;;
15142;SDS011;7672;50.834;6.286;2023-06-26T11:14:22;4.00;;;2.33;;
15142;SDS011;7672;50.834;6.286;2023-06-26T11:16:50;3.88;;;2.40;;
15142;SDS011;7672;50.834;6.286;2023-06-26T11:19:19;3.97;;;2.30;;
15142;SDS011;7672;50.834;6.286;2023-06-26T11:21:47;4.65;;;2.30;;
15142;SDS011;7672;50.834;6.286;2023-06-26T11:24:14;4.68;;;2.55;;
15142;SDS011;7672;50.834;6.286;2023-06-26T11:26:42;5.65;;;2.35;;
15142;SDS011;7672;50.834;6.286;2023-06-26T11:29:11;4.40;;;2.22;;
15142;SDS011;7672;50.834;6.286;2023-06-26T11:31:40;8.30;;;2.67;;
15142;SDS011;7672;50.834;6.286;2023-06-26T11:34:09;3.42;;;2.30;;
15142;SDS011;7672;50.834;6.286;2023-06-26T11:36:39;8.38;;;2.65;;
15142;SDS011;7672;50.834;6.286;2023-06-26T11:39:09;5.00;;;2.38;;
15142;SDS011;7672;50.834;6.286;2023-06-26T11:41:38;6.13;;;2.20;;
15142;SDS011;7672;50.834;6.286;2023-06-26T11:44:07;7.53;;;2.47;;
15142;SDS011;7672;50.834;6.286;2023-06-26T11:46:36;3.90;;;2.47;;
15142;SDS011;7672;50.834;6.286;2023-06-26T11:49:05;3.50;;;2.38;;
15142;SDS011;7672;50.834;6.286;2023-06-26T11:51:34;3.95;;;2.47;;
15142;SDS011;7672;50.834;6.286;2023-06-26T11:54:04;2.97;;;1.90;;
15142;SDS011;7672;50.834;6.286;2023-06-26T11:56:32;3.90;;;2.25;;
15142;SDS011;7672;50.834;6.286;2023-06-26T11:59:03;4.63;;;2.20;;
15142;SDS011;7672;50.834;6.286;2023-06-26T12:01:39;5.82;;;2.47;;
15142;SDS011;7672;50.834;6.286;2023-06-26T12:04:11;3.65;;;2.25;;
15142;SDS011;7672;50.834;6.286;2023-06-26T12:06:45;4.75;;;2.55;;
15142;SDS011;7672;50.834;6.286;2023-06-26T12:09:15;5.07;;;2.28;;
15142;SDS011;7672;50.834;6.286;2023-06-26T12:11:46;2.55;;;2.20;;
15142;SDS011;7672;50.834;6.286;2023-06-26T12:14:19;3.83;;;2.78;;
15142;SDS011;7672;50.834;6.286;2023-06-26T12:16:49;4.05;;;2.13;;
15142;SDS011;7672;50.834;6.286;2023-06-26T12:19:16;6.00;;;2.10;;
15142;SDS011;7672;50.834;6.286;2023-06-26T12:21:44;7.80;;;2.20;;
15142;SDS011;7672;50.834;6.286;2023-06-26T12:24:17;4.95;;;2.30;;
15142;SDS011;7672;50.834;6.286;2023-06-26T12:26:49;4.40;;;1.80;;
15142;SDS011;7672;50.834;6.286;2023-06-26T12:29:20;3.97;;;1.83;;
15142;SDS011;7672;50.834;6.286;2023-06-26T12:31:52;3.17;;;2.50;;
15142;SDS011;7672;50.834;6.286;2023-06-26T12:34:21;2.95;;;1.85;;
15142;SDS011;7672;50.834;6.286;2023-06-26T12:36:58;3.38;;;2.05;;
15142;SDS011;7672;50.834;6.286;2023-06-26T12:39:44;4.32;;;2.03;;
15142;SDS011;7672;50.834;6.286;2023-06-26T12:42:16;4.40;;;2.10;;
15142;SDS011;7672;50.834;6.286;2023-06-26T12:44:46;5.32;;;2.17;;
15142;SDS011;7672;50.834;6.286;2023-06-26T12:47:14;5.30;;;2.13;;
15142;SDS011;7672;50.834;6.286;2023-06-26T12:49:44;8.60;;;2.20;;
15142;SDS011;7672;50.834;6.286;2023-06-26T12:52:16;3.25;;;2.40;;
15142;SDS011;7672;50.834;6.286;2023-06-26T12:54:46;4.55;;;2.30;;
15142;SDS011;7672;50.834;6.286;2023-06-26T12:57:19;4.80;;;2.10;;
15142;SDS011;7672;50.834;6.286;2023-06-26T12:59:46;7.47;;;2.15;;
15142;SDS011;7672;50.834;6.286;2023-06-26T13:02:13;4.28;;;1.92;;
15142;SDS011;7672;50.834;6.286;2023-06-26T13:04:41;2.63;;;2.08;;
15142;SDS011;7672;50.834;6.286;2023-06-26T13:07:10;4.20;;;2.42;;
15142;SDS011;7672;50.834;6.286;2023-06-26T13:09:38;4.75;;;2.40;;
15142;SDS011;7672;50.834;6.286;2023-06-26T13:12:07;2.78;;;2.10;;
15142;SDS011;7672;50.834;6.286;2023-06-26T13:14:35;4.72;;;1.98;;
15142;SDS011;7672;50.834;6.286;2023-06-26T13:17:02;5.68;;;2.42;;
15142;SDS011;7672;50.834;6.286;2023-06-26T13:19:33;3.35;;;2.15;;
15142;SDS011;7672;50.834;6.286;2023-06-26T13:22:00;7.18;;;2.30;;
15142;SDS011;7672;50.834;6.286;2023-06-26T13:24:27;3.58;;;2.17;;
15142;SDS011;7672;50.834;6.286;2023-06-26T13:26:54;2.92;;;2.13;;
15142;SDS011;7672;50.834;6.286;2023-06-26T13:29:21;4.68;;;2.22;;
15142;SDS011;7672;50.834;6.286;2023-06-26T13:31:49;3.30;;;2.03;;
15142;SDS011;7672;50.834;6.286;2023-06-26T13:34:20;5.93;;;2.35;;
15142;SDS011;7672;50.834;6.286;2023-06-26T13:36:49;4.57;;;2.13;;
15142;SDS011;7672;50.834;6.286;2023-06-26T13:39:17;6.47;;;2.63;;
15142;SDS011;7672;50.834;6.286;2023-06-26T13:41:44;6.38;;;2.13;;
15142;SDS011;7672;50.834;6.286;2023-06-26T13:44:12;3.92;;;2.47;;
15142;SDS011;7672;50.834;6.286;2023-06-26T13:46:46;3.92;;;2.10;;
15142;SDS011;7672;50.834;6.286;2023-06-26T13:49:14;3.97;;;2.00;;
15142;SDS011;7672;50.834;6.286;2023-06-26T13:51:41;4.43;;;2.42;;
15142;SDS011;7672;50.834;6.286;2023-06-26T13:54:12;3.42;;;2.10;;
15142;SDS011;7672;50.834;6.286;2023-06-26T13:56:39;4.85;;;2.05;;
15142;SDS011;7672;50.834;6.286;2023-06-26T13:59:07;3.20;;;2.08;;
15142;SDS011;7672;50.834;6.286;2023-06-26T14:01:34;4.20;;;2.00;;
15142;SDS011;7672;50.834;6.286;2023-06-26T14:04:01;2.40;;;1.90;;
15142;SDS011;7672;50.834;6.286;2023-06-26T14:06:28;3.65;;;1.92;;
15142;SDS011;7672;50.834;6.286;2023-06-26T14:08:56;15.25;;;2.70;;
15142;SDS011;7672;50.834;6.286;2023-06-26T14:11:23;5.07;;;2.40;;
15142;SDS011;7672;50.834;6.286;2023-06-26T14:13:51;5.38;;;2.50;;
15142;SDS011;7672;50.834;6.286;2023-06-26T14:16:18;3.95;;;1.90;;
15142;SDS011;7672;50.834;6.286;2023-06-26T14:18:47;3.72;;;2.33;;
15142;SDS011;7672;50.834;6.286;2023-06-26T14:21:14;2.53;;;2.08;;
15142;SDS011;7672;50.834;6.286;2023-06-26T14:23:43;3.40;;;2.10;;
15142;SDS011;7672;50.834;6.286;2023-06-26T14:26:10;7.10;;;2.13;;
15142;SDS011;7672;50.834;6.286;2023-06-26T14:28:38;2.78;;;2.10;;
15142;SDS011;7672;50.834;6.286;2023-06-26T14:31:05;6.75;;;2.10;;
15142;SDS011;7672;50.834;6.286;2023-06-26T14:33:32;4.50;;;1.75;;
15142;SDS011;7672;50.834;6.286;2023-06-26T14:35:59;6.13;;;2.20;;
15142;SDS011;7672;50.834;6.286;2023-06-26T14:38:26;4.97;;;2.42;;
15142;SDS011;7672;50.834;6.286;2023-06-26T14:40:54;8.13;;;2.30;;
15142;SDS011;7672;50.834;6.286;2023-06-26T14:43:21;3.88;;;2.22;;
15142;SDS011;7672;50.834;6.286;2023-06-26T14:45:49;5.13;;;2.80;;
15142;SDS011;7672;50.834;6.286;2023-06-26T14:48:17;6.63;;;2.33;;
15142;SDS011;7672;50.834;6.286;2023-06-26T14:50:45;4.35;;;2.30;;
15142;SDS011;7672;50.834;6.286;2023-06-26T14:53:12;2.13;;;1.92;;
15142;SDS011;7672;50.834;6.286;2023-06-26T14:55:40;4.32;;;2.10;;
15142;SDS011;7672;50.834;6.286;2023-06-26T14:58:07;2.30;;;2.10;;
15142;SDS011;7672;50.834;6.286;2023-06-26T15:00:34;2.75;;;2.42;;
15142;SDS011;7672;50.834;6.286;2023-06-26T15:03:01;3.78;;;2.75;;
15142;SDS011;7672;50.834;6.286;2023-06-26T15:05:29;4.13;;;2.17;;
15142;SDS011;7672;50.834;6.286;2023-06-26T15:07:56;2.40;;;2.20;;
15142;SDS011;7672;50.834;6.286;2023-06-26T15:10:26;7.60;;;2.00;;
15142;SDS011;7672;50.834;6.286;2023-06-26T15:12:56;5.75;;;2.70;;
15142;SDS011;7672;50.834;6.286;2023-06-26T15:15:24;8.05;;;2.78;;
15142;SDS011;7672;50.834;6.286;2023-06-26T15:17:54;5.10;;;2.17;;
15142;SDS011;7672;50.834;6.286;2023-06-26T15:20:21;2.67;;;2.10;;
15142;SDS011;7672;50.834;6.286;2023-06-26T15:22:48;6.18;;;2.30;;
15142;SDS011;7672;50.834;6.286;2023-06-26T15:25:15;3.65;;;2.17;;
15142;SDS011;7672;50.834;6.286;2023-06-26T15:27:42;5.82;;;2.30;;
15142;SDS011;7672;50.834;6.286;2023-06-26T15:30:10;4.10;;;2.45;;
15142;SDS011;7672;50.834;6.286;2023-06-26T15:32:38;6.15;;;2.28;;